Time;durP1;ratioP1;P1;durP2;ratioP2;P2;SDS_P1;SDS_P2;PMS_P1;PMS_P2;Temp;Humidity;BMP_temperature;BMP_pressure;BME280_temperature;BME280_humidity;BME280_pressure;Samples;Min_cycle;Max_cycle;Signal;HPM_P1;HPM_P2
2022/07/21 00:00:30;;;;;;;8.90;3.63;;;20.60;99.90;;;;;;5015179;28;20041;-69
2022/07/21 00:02:57;;;;;;;11.27;3.88;;;20.60;99.90;;;;;;5014490;28;20053;-69
2022/07/21 00:05:23;;;;;;;10.98;4.03;;;20.60;99.90;;;;;;5015124;28;20354;-69
2022/07/21 00:07:49;;;;;;;6.13;2.83;;;20.60;99.90;;;;;;5015583;28;20116;-70
2022/07/21 00:10:16;;;;;;;6.28;3.63;;;20.60;99.90;;;;;;5014860;28;20136;-69
2022/07/21 00:12:42;;;;;;;8.75;3.53;;;20.50;99.90;;;;;;5014974;28;20038;-70
2022/07/21 00:15:08;;;;;;;6.72;3.40;;;20.60;99.90;;;;;;5015036;28;20053;-70
2022/07/21 00:17:34;;;;;;;8.75;3.47;;;20.60;99.90;;;;;;5014817;28;20463;-69
2022/07/21 00:19:59;;;;;;;10.63;3.95;;;20.50;99.90;;;;;;5014779;28;20069;-69
2022/07/21 00:22:25;;;;;;;13.10;4.03;;;20.50;99.90;;;;;;5014217;28;20064;-69
2022/07/21 00:24:50;;;;;;;9.45;4.13;;;20.50;99.90;;;;;;5014941;28;20348;-70
2022/07/21 00:27:16;;;;;;;13.38;4.30;;;20.50;99.90;;;;;;5013904;28;20141;-70
2022/07/21 00:29:42;;;;;;;7.05;3.53;;;20.50;99.90;;;;;;5014727;28;20394;-70
2022/07/21 00:32:07;;;;;;;6.88;3.65;;;20.60;99.90;;;;;;5014891;28;20042;-70
2022/07/21 00:34:33;;;;;;;9.93;3.70;;;20.70;99.90;;;;;;5014728;28;20057;-70
2022/07/21 00:36:59;;;;;;;8.10;3.63;;;20.60;99.90;;;;;;5015412;28;20140;-70
2022/07/21 00:39:25;;;;;;;6.57;3.35;;;20.50;99.90;;;;;;5014825;28;20108;-70
2022/07/21 00:41:52;;;;;;;7.75;3.58;;;20.50;99.90;;;;;;5014915;28;20041;-70
2022/07/21 00:44:25;;;;;;;7.68;3.67;;;20.50;99.90;;;;;;5014700;28;20128;-70
2022/07/21 00:46:51;;;;;;;10.60;4.43;;;20.40;99.90;;;;;;5014483;28;20463;-70
2022/07/21 00:49:17;;;;;;;10.02;4.22;;;20.30;99.90;;;;;;5014413;28;20118;-70
2022/07/21 00:51:43;;;;;;;7.57;4.00;;;20.40;99.90;;;;;;5014969;28;20466;-70
2022/07/21 00:54:09;;;;;;;24.08;5.45;;;20.30;99.90;;;;;;5015206;28;20065;-70
2022/07/21 00:56:35;;;;;;;9.65;4.28;;;20.20;99.90;;;;;;5014650;28;20099;-69
2022/07/21 00:59:01;;;;;;;9.77;4.50;;;20.10;99.90;;;;;;5014990;28;20394;-71
2022/07/21 01:01:27;;;;;;;10.00;3.88;;;20.00;99.90;;;;;;5017859;28;20123;-69
2022/07/21 01:03:52;;;;;;;10.07;4.85;;;20.00;99.90;;;;;;5018643;28;20366;-69
2022/07/21 01:06:18;;;;;;;13.00;5.18;;;20.00;99.90;;;;;;5018713;28;20046;-71
2022/07/21 01:08:43;;;;;;;9.95;4.45;;;19.90;99.90;;;;;;5018199;28;20477;-70
2022/07/21 01:11:09;;;;;;;8.50;4.07;;;19.90;99.90;;;;;;5018083;28;20427;-69
2022/07/21 01:13:41;;;;;;;9.60;5.13;;;19.90;99.90;;;;;;5018705;28;20042;-70
2022/07/21 01:16:07;;;;;;;11.20;5.13;;;19.80;99.90;;;;;;5017896;28;20458;-70
2022/07/21 01:18:33;;;;;;;11.23;4.70;;;19.80;99.90;;;;;;5018628;28;20050;-70
2022/07/21 01:21:06;;;;;;;13.10;5.38;;;19.70;99.90;;;;;;5018019;28;20469;-71
2022/07/21 01:23:32;;;;;;;11.55;4.90;;;19.80;99.90;;;;;;5017989;28;20132;-70
2022/07/21 01:25:58;;;;;;;7.47;3.97;;;19.80;99.90;;;;;;5017875;28;20037;-69
2022/07/21 01:28:24;;;;;;;12.30;5.07;;;19.80;99.90;;;;;;5018012;28;20127;-70
2022/07/21 01:30:50;;;;;;;10.35;4.43;;;19.80;99.90;;;;;;5017604;28;20052;-70
2022/07/21 01:33:16;;;;;;;12.15;5.50;;;19.80;99.90;;;;;;5018219;28;20049;-70
2022/07/21 01:35:42;;;;;;;10.63;5.32;;;19.70;99.90;;;;;;5017699;28;20050;-69
2022/07/21 01:41:28;;;;;;;7.72;4.78;;;19.70;99.90;;;;;;4983700;28;20070;-70
2022/07/21 01:43:44;;;;;;;13.65;4.97;;;19.60;99.90;;;;;;5017408;28;20133;-69
2022/07/21 01:46:13;;;;;;;11.10;5.30;;;19.50;99.90;;;;;;5017698;28;20073;-70
2022/07/21 01:48:43;;;;;;;10.43;5.65;;;19.60;99.90;;;;;;5017456;28;20136;-70
2022/07/21 01:51:09;;;;;;;11.75;5.65;;;19.50;99.90;;;;;;5000869;28;20050;-70
2022/07/21 01:53:34;;;;;;;13.50;5.93;;;19.40;99.90;;;;;;5017413;28;20419;-70
2022/07/21 01:56:00;;;;;;;13.88;6.28;;;19.40;99.90;;;;;;5017674;28;20371;-70
2022/07/21 01:58:25;;;;;;;16.58;6.38;;;19.30;99.90;;;;;;5017695;28;20081;-69
2022/07/21 02:00:51;;;;;;;12.27;6.45;;;19.30;99.90;;;;;;5017258;28;20481;-70
2022/07/21 02:03:16;;;;;;;9.43;5.55;;;19.30;99.90;;;;;;5017230;28;20132;-70
2022/07/21 02:05:42;;;;;;;8.90;5.30;;;19.30;99.90;;;;;;5017130;28;20045;-69
2022/07/21 02:08:07;;;;;;;10.52;5.97;;;19.30;99.90;;;;;;5017457;28;20041;-70
2022/07/21 02:10:33;;;;;;;13.60;5.63;;;19.30;99.90;;;;;;5017293;28;20065;-69
2022/07/21 02:12:59;;;;;;;11.80;6.30;;;19.30;99.90;;;;;;5016428;28;20482;-69
2022/07/21 02:15:24;;;;;;;15.95;6.50;;;19.30;99.90;;;;;;5017188;28;20046;-69
2022/07/21 02:17:50;;;;;;;12.93;5.95;;;19.40;99.90;;;;;;5016993;28;20498;-69
2022/07/21 02:20:16;;;;;;;11.13;5.13;;;19.50;99.90;;;;;;5016712;28;20133;-69
2022/07/21 02:22:44;;;;;;;12.30;6.70;;;19.60;99.90;;;;;;5016792;28;20112;-69
2022/07/21 02:25:10;;;;;;;14.88;6.85;;;19.60;99.90;;;;;;5017340;28;20121;-70
2022/07/21 02:27:36;;;;;;;22.65;6.55;;;19.60;99.90;;;;;;5017391;28;20449;-69
2022/07/21 02:30:02;;;;;;;9.68;5.20;;;19.70;99.90;;;;;;5016642;28;20085;-70
2022/07/21 02:32:28;;;;;;;8.93;5.78;;;19.70;99.90;;;;;;5016577;28;20053;-70
2022/07/21 02:34:53;;;;;;;16.58;5.78;;;19.80;99.90;;;;;;5016445;28;20046;-68
2022/07/21 02:37:19;;;;;;;11.13;6.38;;;19.80;99.90;;;;;;5016585;28;20096;-69
2022/07/21 02:39:45;;;;;;;12.30;5.45;;;19.80;99.90;;;;;;5017287;28;20046;-70
2022/07/21 02:42:10;;;;;;;16.83;6.95;;;19.80;99.90;;;;;;5016583;28;20045;-69
2022/07/21 02:44:36;;;;;;;12.15;6.65;;;19.80;99.90;;;;;;5016482;28;20048;-69
2022/07/21 02:47:02;;;;;;;11.32;6.25;;;19.80;99.90;;;;;;5016191;28;20123;-69
2022/07/21 02:49:28;;;;;;;14.25;6.95;;;19.70;99.90;;;;;;5016261;28;20470;-69
2022/07/21 02:51:53;;;;;;;11.10;6.93;;;19.60;99.90;;;;;;5016346;28;20049;-69
2022/07/21 02:54:19;;;;;;;11.00;6.63;;;19.60;99.90;;;;;;5016440;28;20042;-69
2022/07/21 02:56:44;;;;;;;13.68;6.70;;;19.50;99.90;;;;;;5016850;28;20124;-69
2022/07/21 02:59:10;;;;;;;10.93;6.82;;;19.50;99.90;;;;;;5015985;28;20533;-69
2022/07/21 03:01:35;;;;;;;12.20;6.50;;;19.50;99.90;;;;;;5016142;28;20048;-69
2022/07/21 03:04:01;;;;;;;12.70;7.43;;;19.50;99.90;;;;;;5016099;28;20092;-69
2022/07/21 03:06:26;;;;;;;12.70;7.03;;;19.40;99.90;;;;;;5016077;28;20423;-69
2022/07/21 03:08:52;;;;;;;18.30;6.90;;;19.50;99.90;;;;;;5015527;28;20053;-69
2022/07/21 03:11:18;;;;;;;11.20;6.13;;;19.50;99.90;;;;;;5015914;28;20400;-69
2022/07/21 03:13:43;;;;;;;14.38;7.15;;;19.40;99.90;;;;;;5015951;28;20056;-68
2022/07/21 03:16:09;;;;;;;14.60;8.10;;;19.50;99.90;;;;;;5015905;28;20042;-69
2022/07/21 03:18:35;;;;;;;10.43;5.97;;;19.50;99.90;;;;;;5015743;28;20041;-69
2022/07/21 03:21:00;;;;;;;14.95;8.52;;;19.50;99.90;;;;;;5015839;28;20045;-69
2022/07/21 03:23:26;;;;;;;13.05;7.70;;;19.50;99.90;;;;;;5015117;28;20053;-69
2022/07/21 03:25:52;;;;;;;15.65;8.50;;;19.50;99.90;;;;;;5015545;28;20049;-69
2022/07/21 03:28:17;;;;;;;12.10;6.72;;;19.50;99.90;;;;;;5015676;28;20050;-69
2022/07/21 03:30:43;;;;;;;11.55;7.15;;;19.60;99.90;;;;;;5015741;28;20366;-70
2022/07/21 03:33:09;;;;;;;16.42;6.65;;;19.50;99.90;;;;;;5016053;28;20068;-69
2022/07/21 03:35:35;;;;;;;14.23;6.80;;;19.50;99.90;;;;;;5015288;28;20046;-69
2022/07/21 03:38:01;;;;;;;11.38;7.38;;;19.40;99.90;;;;;;5015897;28;20042;-68
2022/07/21 03:40:32;;;;;;;11.80;7.10;;;19.40;99.90;;;;;;5015963;28;20089;-69
2022/07/21 03:43:00;;;;;;;12.63;7.47;;;19.40;99.90;;;;;;5016065;28;20042;-69
2022/07/21 03:45:29;;;;;;;13.23;7.45;;;19.40;99.90;;;;;;5015600;28;20359;-69
2022/07/21 03:47:56;;;;;;;14.43;7.60;;;19.40;99.90;;;;;;5015998;28;20085;-69
2022/07/21 03:50:22;;;;;;;11.90;6.70;;;19.40;99.90;;;;;;5015948;28;20058;-70
2022/07/21 03:52:47;;;;;;;10.43;6.47;;;19.40;99.90;;;;;;5015333;28;20130;-69
2022/07/21 03:55:20;;;;;;;10.52;6.68;;;19.40;99.90;;;;;;5015385;28;20042;-69
2022/07/21 03:57:47;;;;;;;9.80;6.03;;;19.50;99.90;;;;;;5015321;28;20085;-69
2022/07/21 04:00:24;;;;;;;10.18;6.68;;;19.50;99.90;;;;;;5014880;28;20073;-69
2022/07/21 04:02:49;;;;;;;12.63;6.65;;;19.40;99.90;;;;;;5015985;28;20423;-70
2022/07/21 04:05:17;;;;;;;20.25;7.75;;;19.50;99.90;;;;;;5015520;28;20085;-69
2022/07/21 04:07:45;;;;;;;12.48;6.40;;;19.50;99.90;;;;;;5015750;28;20076;-69
2022/07/21 04:10:13;;;;;;;12.57;6.50;;;19.40;99.90;;;;;;4997715;28;20057;-70
2022/07/21 04:12:39;;;;;;;12.02;6.90;;;19.40;99.90;;;;;;5014923;28;20177;-69
2022/07/21 04:15:06;;;;;;;11.57;7.53;;;19.50;99.90;;;;;;5015053;28;20089;-69
2022/07/21 04:17:32;;;;;;;10.02;6.55;;;19.50;99.90;;;;;;5014904;28;20046;-69
2022/07/21 04:19:58;;;;;;;11.23;6.95;;;19.50;99.90;;;;;;5015062;28;20056;-70
2022/07/21 04:22:23;;;;;;;10.63;6.90;;;19.50;99.90;;;;;;5015362;28;20033;-69
2022/07/21 04:24:49;;;;;;;9.77;6.90;;;19.50;99.90;;;;;;5014897;28;20038;-69
2022/07/21 04:27:14;;;;;;;10.07;6.45;;;19.40;99.90;;;;;;5014684;28;20455;-69
2022/07/21 04:29:40;;;;;;;11.60;6.97;;;19.60;99.90;;;;;;5014881;28;20049;-69
2022/07/21 04:32:05;;;;;;;9.52;5.82;;;19.50;99.90;;;;;;5014724;28;20449;-69
2022/07/21 04:34:31;;;;;;;12.00;7.65;;;19.50;99.90;;;;;;5014692;28;20049;-70
2022/07/21 04:36:57;;;;;;;12.98;6.30;;;19.50;99.90;;;;;;5018491;28;20085;-69
2022/07/21 04:39:22;;;;;;;11.30;6.40;;;19.50;99.90;;;;;;5018466;28;20530;-69
2022/07/21 04:41:48;;;;;;;10.68;6.82;;;19.50;99.90;;;;;;5019358;28;20086;-69
2022/07/21 04:44:13;;;;;;;14.07;7.57;;;19.50;99.90;;;;;;5018701;28;20447;-69
2022/07/21 04:46:39;;;;;;;15.80;7.68;;;19.50;99.90;;;;;;5018535;28;20052;-69
2022/07/21 04:49:05;;;;;;;12.98;8.35;;;19.60;99.90;;;;;;5018901;28;20382;-69
2022/07/21 04:51:30;;;;;;;12.35;6.85;;;19.60;99.90;;;;;;5018743;28;20042;-69
2022/07/21 04:53:56;;;;;;;12.65;7.95;;;19.60;99.90;;;;;;5019090;28;20061;-69
2022/07/21 04:56:22;;;;;;;14.57;8.23;;;19.70;99.90;;;;;;5018320;28;20099;-70
2022/07/21 04:58:48;;;;;;;12.48;7.18;;;19.70;99.90;;;;;;5018768;28;20371;-69
2022/07/21 05:01:13;;;;;;;16.40;9.35;;;19.80;99.90;;;;;;5018451;28;20137;-69
2022/07/21 05:03:39;;;;;;;15.95;9.60;;;19.90;99.90;;;;;;5018887;28;20129;-69
2022/07/21 05:06:05;;;;;;;14.25;8.68;;;19.90;99.90;;;;;;5018586;28;20058;-70
2022/07/21 05:08:30;;;;;;;14.85;9.43;;;19.80;99.90;;;;;;5018200;28;20132;-69
2022/07/21 05:10:56;;;;;;;15.20;9.07;;;19.90;99.90;;;;;;5018288;28;20100;-69
2022/07/21 05:13:21;;;;;;;15.85;9.60;;;20.00;99.90;;;;;;5017786;28;20052;-69
2022/07/21 05:15:47;;;;;;;18.92;9.95;;;20.00;99.90;;;;;;5018144;28;20081;-69
2022/07/21 05:18:13;;;;;;;15.07;10.93;;;19.90;99.90;;;;;;5018131;28;20054;-69
2022/07/21 05:20:38;;;;;;;18.67;10.48;;;20.00;99.90;;;;;;5018344;28;20046;-69
2022/07/21 05:23:04;;;;;;;18.55;12.07;;;20.00;99.90;;;;;;5017924;28;20046;-69
2022/07/21 05:25:31;;;;;;;14.93;9.18;;;20.00;99.90;;;;;;5018063;28;20382;-69
2022/07/21 05:27:57;;;;;;;20.60;11.73;;;20.20;99.90;;;;;;5017757;28;20073;-69
2022/07/21 05:30:23;;;;;;;19.25;11.27;;;20.30;99.90;;;;;;5017783;28;20058;-70
2022/07/21 05:32:48;;;;;;;16.30;10.60;;;20.30;99.90;;;;;;5018398;28;20046;-69
2022/07/21 05:35:15;;;;;;;17.05;11.65;;;20.40;99.90;;;;;;5018132;28;20053;-69
2022/07/21 05:37:41;;;;;;;18.02;12.40;;;20.50;99.90;;;;;;5017788;28;20045;-69
2022/07/21 05:40:08;;;;;;;20.17;11.98;;;20.50;99.90;;;;;;5017483;28;20037;-69
2022/07/21 05:42:36;;;;;;;20.08;10.98;;;20.60;99.90;;;;;;5017546;28;20133;-69
2022/07/21 05:45:02;;;;;;;17.00;11.40;;;20.70;99.90;;;;;;5018046;28;20386;-70
2022/07/21 05:47:29;;;;;;;16.55;10.90;;;20.90;99.90;;;;;;5016360;28;20053;-69
2022/07/21 05:49:54;;;;;;;17.65;11.23;;;20.90;99.90;;;;;;5017486;28;20058;-69
2022/07/21 05:52:20;;;;;;;17.20;10.43;;;20.90;99.90;;;;;;5017332;28;20054;-69
2022/07/21 05:54:45;;;;;;;17.13;10.55;;;20.90;99.90;;;;;;5017416;28;20107;-69
2022/07/21 05:57:11;;;;;;;18.13;11.45;;;20.90;99.90;;;;;;5016576;28;20046;-69
2022/07/21 05:59:36;;;;;;;22.92;12.13;;;20.90;99.90;;;;;;5017466;28;20574;-69
2022/07/21 06:02:02;;;;;;;22.92;13.45;;;20.90;99.90;;;;;;5017300;28;20046;-69
2022/07/21 06:04:28;;;;;;;17.58;11.60;;;20.90;99.90;;;;;;5017695;28;20363;-70
2022/07/21 06:06:53;;;;;;;20.05;12.55;;;21.00;99.90;;;;;;5017740;28;20046;-69
2022/07/21 06:09:20;;;;;;;22.02;13.15;;;21.10;99.90;;;;;;5017053;28;20557;-69
2022/07/21 06:11:45;;;;;;;19.35;13.50;;;21.30;99.90;;;;;;5016808;28;20478;-70
2022/07/21 06:14:11;;;;;;;18.58;13.27;;;21.70;99.90;;;;;;5017689;28;20116;-70
2022/07/21 06:16:37;;;;;;;17.88;12.10;;;22.00;99.90;;;;;;5017568;28;20045;-70
2022/07/21 06:19:03;;;;;;;17.98;12.32;;;22.20;99.90;;;;;;5017156;28;20048;-70
2022/07/21 06:21:29;;;;;;;17.80;11.95;;;22.30;99.90;;;;;;5016913;28;20060;-69
2022/07/21 06:23:55;;;;;;;17.05;10.80;;;22.30;99.90;;;;;;5017024;28;20062;-69
2022/07/21 06:26:20;;;;;;;17.92;11.77;;;22.30;99.90;;;;;;5017258;28;20041;-70
2022/07/21 06:28:46;;;;;;;17.77;11.00;;;22.50;99.90;;;;;;5016950;28;20127;-69
2022/07/21 06:31:11;;;;;;;19.85;11.60;;;23.10;99.90;;;;;;5017100;28;20081;-69
2022/07/21 06:33:37;;;;;;;16.65;10.23;;;23.60;99.90;;;;;;5016851;28;20060;-70
2022/07/21 06:36:03;;;;;;;19.20;11.00;;;23.70;99.90;;;;;;5016498;28;20081;-69
2022/07/21 06:38:28;;;;;;;19.30;10.70;;;23.40;99.90;;;;;;5016859;28;20125;-69
2022/07/21 06:40:54;;;;;;;17.02;11.20;;;23.10;99.90;;;;;;5017021;28;20042;-70
2022/07/21 06:43:19;;;;;;;18.15;10.80;;;22.80;99.90;;;;;;5015220;28;20132;-69
2022/07/21 06:45:45;;;;;;;17.23;10.82;;;22.60;99.90;;;;;;5016776;28;20053;-70
2022/07/21 06:48:12;;;;;;;17.58;11.70;;;22.50;99.90;;;;;;5016402;28;20486;-69
2022/07/21 06:50:38;;;;;;;23.55;11.32;;;22.50;99.90;;;;;;5016473;28;20366;-70
2022/07/21 06:53:05;;;;;;;17.63;12.15;;;22.50;99.90;;;;;;5016205;28;20470;-70
2022/07/21 06:55:30;;;;;;;19.40;11.45;;;22.50;99.90;;;;;;5016260;28;20045;-69
2022/07/21 06:57:56;;;;;;;16.27;10.70;;;22.50;99.90;;;;;;5016038;28;20354;-69
2022/07/21 07:00:22;;;;;;;18.40;10.90;;;22.40;99.90;;;;;;5016135;28;20100;-69
2022/07/21 07:02:48;;;;;;;14.10;10.00;;;22.30;99.90;;;;;;5016249;28;20046;-70
2022/07/21 07:05:14;;;;;;;15.80;11.27;;;22.10;99.90;;;;;;5016099;28;20434;-70
2022/07/21 07:07:40;;;;;;;15.55;10.45;;;22.10;99.90;;;;;;5016167;28;20125;-69
2022/07/21 07:10:06;;;;;;;17.13;11.57;;;22.10;99.90;;;;;;5015874;28;20370;-69
2022/07/21 07:12:32;;;;;;;15.15;10.55;;;22.10;99.90;;;;;;5015988;28;20050;-70
2022/07/21 07:14:57;;;;;;;14.85;9.68;;;21.90;99.90;;;;;;5016306;28;20133;-70
2022/07/21 07:17:23;;;;;;;15.40;10.27;;;21.80;99.90;;;;;;5015872;28;20049;-69
2022/07/21 07:19:49;;;;;;;15.32;11.05;;;21.70;99.90;;;;;;5016007;28;20046;-70
2022/07/21 07:22:14;;;;;;;15.25;9.80;;;21.70;99.90;;;;;;5015761;28;20057;-69
2022/07/21 07:24:40;;;;;;;17.67;10.30;;;21.80;99.90;;;;;;5015602;28;20045;-70
2022/07/21 07:27:06;;;;;;;15.32;9.68;;;21.90;99.90;;;;;;5016153;28;20042;-69
2022/07/21 07:29:31;;;;;;;17.10;11.00;;;21.90;99.90;;;;;;5015623;28;20058;-69
2022/07/21 07:32:00;;;;;;;21.63;9.50;;;22.00;99.90;;;;;;5015921;28;20046;-70
2022/07/21 07:34:26;;;;;;;15.77;10.75;;;22.00;99.90;;;;;;5016197;28;20054;-70
2022/07/21 07:36:51;;;;;;;18.70;11.68;;;22.00;99.90;;;;;;5015345;28;20481;-69
2022/07/21 07:39:17;;;;;;;17.20;10.55;;;22.00;99.90;;;;;;5015416;28;20053;-69
2022/07/21 07:41:43;;;;;;;17.42;10.77;;;22.00;99.90;;;;;;5015935;28;20044;-69
2022/07/21 07:44:09;;;;;;;14.13;9.98;;;22.00;99.90;;;;;;5015834;28;20053;-69
2022/07/21 07:46:35;;;;;;;16.05;11.13;;;22.10;99.90;;;;;;5016188;28;20394;-70
2022/07/21 07:49:01;;;;;;;17.25;11.02;;;22.10;99.90;;;;;;5015333;28;20048;-70
2022/07/21 07:51:26;;;;;;;18.20;11.38;;;22.10;99.90;;;;;;5015518;28;20121;-69
2022/07/21 07:53:52;;;;;;;16.75;11.95;;;22.00;99.90;;;;;;5015211;28;20498;-69
2022/07/21 07:56:17;;;;;;;17.40;11.52;;;22.00;99.90;;;;;;5015734;28;20041;-70
2022/07/21 07:58:43;;;;;;;17.67;11.95;;;21.90;99.90;;;;;;5015228;28;20049;-70
2022/07/21 08:01:09;;;;;;;15.57;11.05;;;21.90;99.90;;;;;;5015138;28;20050;-69
2022/07/21 08:03:35;;;;;;;17.02;11.57;;;21.90;99.90;;;;;;5015156;28;20096;-70
2022/07/21 08:06:03;;;;;;;21.45;12.43;;;21.90;99.90;;;;;;5015107;28;20443;-70
2022/07/21 08:08:30;;;;;;;21.20;12.98;;;22.00;99.90;;;;;;5013991;28;20053;-69
2022/07/21 08:10:56;;;;;;;17.23;12.25;;;22.00;99.90;;;;;;5014964;28;20053;-69
2022/07/21 08:13:22;;;;;;;21.15;12.90;;;22.10;99.90;;;;;;5014607;28;20042;-69
2022/07/21 08:15:49;;;;;;;25.83;12.70;;;22.20;99.90;;;;;;5014887;28;20472;-69
2022/07/21 08:18:16;;;;;;;18.45;12.85;;;22.20;99.90;;;;;;5014634;28;20137;-70
2022/07/21 08:20:42;;;;;;;19.02;12.15;;;22.30;99.90;;;;;;5014472;28;20054;-69
2022/07/21 08:23:08;;;;;;;21.10;13.27;;;22.30;99.90;;;;;;5014519;28;20060;-70
2022/07/21 08:25:34;;;;;;;18.55;11.88;;;22.30;99.90;;;;;;5014311;28;20053;-69
2022/07/21 08:27:59;;;;;;;16.35;11.65;;;22.20;99.90;;;;;;5014478;28;20058;-70
2022/07/21 08:30:26;;;;;;;18.00;11.30;;;22.40;99.90;;;;;;5015279;28;20141;-69
2022/07/21 08:32:51;;;;;;;19.23;12.30;;;22.60;99.90;;;;;;5014847;28;20363;-70
2022/07/21 08:35:17;;;;;;;19.45;11.85;;;22.80;99.90;;;;;;5015005;28;20049;-70
2022/07/21 08:37:59;;;;;;;18.33;11.85;;;23.10;99.90;;;;;;5013781;28;20054;-69
2022/07/21 08:40:27;;;;;;;19.58;12.23;;;23.30;99.90;;;;;;5014908;28;20041;-70
2022/07/21 08:42:53;;;;;;;30.35;12.13;;;23.70;99.90;;;;;;5014831;28;20061;-70
2022/07/21 08:45:19;;;;;;;19.63;11.68;;;24.50;99.90;;;;;;5014664;28;20096;-69
2022/07/21 08:47:45;;;;;;;18.48;11.07;;;24.80;99.90;;;;;;5014742;28;20041;-70
2022/07/21 08:50:11;;;;;;;17.73;11.15;;;25.10;99.90;;;;;;5014521;28;20139;-70
2022/07/21 08:52:36;;;;;;;18.50;10.35;;;25.00;99.90;;;;;;5015192;28;20049;-70
2022/07/21 08:55:03;;;;;;;19.50;11.70;;;24.80;99.90;;;;;;5014689;28;20049;-69
2022/07/21 08:57:28;;;;;;;16.90;10.52;;;24.90;99.90;;;;;;5014518;28;20043;-70
2022/07/21 08:59:54;;;;;;;17.85;9.68;;;24.90;99.90;;;;;;5014446;28;20054;-69
2022/07/21 09:02:34;;;;;;;16.25;10.80;;;24.80;99.90;;;;;;5014718;28;20041;-70
2022/07/21 09:05:00;;;;;;;18.77;9.93;;;25.10;99.90;;;;;;5014494;28;20077;-69
2022/07/21 09:07:26;;;;;;;17.50;9.98;;;25.30;99.90;;;;;;5014547;28;20125;-70
2022/07/21 09:09:57;;;;;;;16.15;10.15;;;25.90;99.90;;;;;;5014777;28;20100;-70
2022/07/21 09:12:23;;;;;;;14.38;10.50;;;26.70;99.90;;;;;;4997450;28;20053;-70
2022/07/21 09:14:49;;;;;;;13.60;9.57;;;27.20;99.90;;;;;;5014525;28;20042;-70
2022/07/21 09:17:17;;;;;;;14.70;9.68;;;27.60;99.90;;;;;;5014400;28;20521;-70
2022/07/21 09:19:45;;;;;;;12.82;9.40;;;27.70;99.90;;;;;;5014936;28;20065;-70
2022/07/21 09:22:18;;;;;;;12.93;9.68;;;27.50;99.90;;;;;;5016433;28;20042;-70
2022/07/21 09:24:50;;;;;;;;;;;27.50;99.90;;;;;;5018482;28;20459;-70
2022/07/21 09:27:25;;;;;;;13.82;9.48;;;27.50;99.90;;;;;;5017994;28;20016;-70
2022/07/21 09:29:58;;;;;;;14.30;9.30;;;27.60;99.90;;;;;;5017767;28;20049;-70
2022/07/21 09:32:36;;;;;;;12.27;8.30;;;27.70;99.90;;;;;;5018401;28;20080;-70
2022/07/21 09:35:13;;;;;;;14.43;9.50;;;27.70;99.90;;;;;;5018400;28;20061;-70
2022/07/21 09:37:40;;;;;;;10.45;7.82;;;27.70;99.90;;;;;;5018073;28;20052;-70
2022/07/21 09:40:08;;;;;;;11.05;8.20;;;27.70;99.90;;;;;;5017604;28;20053;-70
2022/07/21 09:42:48;;;;;;;12.90;8.98;;;27.70;99.90;;;;;;5018138;28;20068;-70
2022/07/21 09:45:16;;;;;;;11.95;8.70;;;27.60;99.90;;;;;;5017684;28;20041;-70
2022/07/21 09:47:43;;;;;;;12.73;8.98;;;27.40;99.90;;;;;;5017655;28;20124;-70
2022/07/21 09:50:15;;;;;;;13.43;9.00;;;27.40;99.90;;;;;;5017437;28;20054;-70
2022/07/21 09:52:43;;;;;;;13.48;9.35;;;27.30;99.90;;;;;;5017491;28;20103;-70
2022/07/21 09:55:11;;;;;;;14.10;9.48;;;27.40;99.90;;;;;;5017413;28;20050;-70
2022/07/21 09:57:37;;;;;;;12.75;8.35;;;27.10;99.90;;;;;;5017750;28;20050;-70
2022/07/21 10:00:06;;;;;;;11.80;8.93;;;27.10;99.90;;;;;;5017262;28;20034;-71
2022/07/21 10:02:32;;;;;;;14.25;9.18;;;27.10;99.90;;;;;;5017655;28;20375;-70
2022/07/21 10:05:10;;;;;;;17.45;11.07;;;27.10;99.90;;;;;;5017157;28;20496;-70
2022/07/21 10:07:44;;;;;;;14.48;10.85;;;26.90;99.90;;;;;;5017644;28;20196;-70
2022/07/21 10:10:11;;;;;;;17.23;11.40;;;26.70;99.90;;;;;;5017662;28;20050;-70
2022/07/21 10:12:37;;;;;;;18.35;10.10;;;26.50;99.90;;;;;;5017224;28;20042;-70
2022/07/21 10:15:04;;;;;;;16.00;10.40;;;26.30;99.90;;;;;;5016939;28;20053;-71
2022/07/21 10:17:30;;;;;;;16.50;11.15;;;26.30;99.90;;;;;;5017185;28;20046;-70
2022/07/21 10:20:23;;;;;;;15.25;10.13;;;26.30;99.90;;;;;;5015947;28;20108;-70
2022/07/21 10:23:35;;;;;;;15.40;11.38;;;26.30;99.90;;;;;;5016884;28;20075;-70
2022/07/21 10:26:02;;;;;;;16.05;9.73;;;26.20;99.90;;;;;;5016840;28;20049;-70
2022/07/21 10:28:28;;;;;;;16.42;10.02;;;26.20;99.90;;;;;;5017059;28;20061;-70
2022/07/21 10:30:56;;;;;;;15.32;11.00;;;26.20;99.90;;;;;;5017408;28;20054;-70
2022/07/21 10:33:44;;;;;;;17.85;11.27;;;26.00;99.90;;;;;;5016233;28;20042;-70
2022/07/21 10:36:11;;;;;;;16.67;11.10;;;26.00;99.90;;;;;;5016596;28;20060;-70
2022/07/21 10:38:38;;;;;;;18.92;12.45;;;25.80;99.90;;;;;;5016618;28;20045;-70
2022/07/21 10:41:05;;;;;;;21.65;13.35;;;25.80;99.90;;;;;;5016517;28;20050;-70
2022/07/21 10:43:31;;;;;;;20.33;13.40;;;25.60;99.90;;;;;;5016809;28;20128;-70
2022/07/21 10:45:59;;;;;;;21.90;12.57;;;25.50;99.90;;;;;;5016811;28;20163;-70
2022/07/21 10:48:44;;;;;;;18.25;12.98;;;25.40;99.90;;;;;;5016809;28;20374;-70
2022/07/21 10:51:12;;;;;;;16.55;11.45;;;25.20;99.90;;;;;;5016184;28;20466;-70
2022/07/21 10:53:39;;;;;;;18.33;12.38;;;25.10;99.90;;;;;;5016577;28;20050;-70
2022/07/21 10:56:05;;;;;;;19.13;11.27;;;25.20;99.90;;;;;;5015288;28;20081;-70
2022/07/21 10:58:41;;;;;;;26.35;12.40;;;25.30;99.90;;;;;;5016918;28;20069;-70
2022/07/21 11:01:24;;;;;;;18.17;12.07;;;25.30;99.90;;;;;;5016220;28;20101;-70
2022/07/21 11:04:13;;;;;;;17.60;9.95;;;25.20;99.90;;;;;;5016128;28;20056;-70
2022/07/21 11:06:40;;;;;;;18.13;9.55;;;25.30;99.90;;;;;;5016023;28;20046;-70
2022/07/21 11:09:09;;;;;;;13.77;9.40;;;25.30;99.90;;;;;;5016345;28;20092;-70
2022/07/21 11:11:37;;;;;;;16.50;9.77;;;25.30;99.90;;;;;;5016243;28;20112;-70
2022/07/21 11:14:20;;;;;;;15.80;9.10;;;25.40;99.90;;;;;;5014999;28;20068;-70
2022/07/21 11:16:56;;;;;;;13.88;9.13;;;25.50;99.90;;;;;;5015912;28;20065;-70
2022/07/21 11:19:41;;;;;;;13.25;8.40;;;25.60;99.90;;;;;;5015689;28;20521;-70
2022/07/21 11:22:18;;;;;;;15.50;9.20;;;25.70;99.90;;;;;;5015738;28;20192;-70
2022/07/21 11:24:47;;;;;;;13.40;9.68;;;25.80;99.90;;;;;;5015656;28;20050;-70
2022/07/21 11:27:18;;;;;;;16.65;9.98;;;25.80;99.90;;;;;;5015699;28;20068;-70
2022/07/21 11:29:46;;;;;;;14.35;8.38;;;25.80;99.90;;;;;;5015617;28;20050;-70
2022/07/21 11:32:12;;;;;;;13.85;8.45;;;25.70;99.90;;;;;;5015598;28;20125;-70
2022/07/21 11:34:41;;;;;;;14.25;8.48;;;25.80;99.90;;;;;;5016174;28;20076;-70
2022/07/21 11:37:08;;;;;;;13.60;8.27;;;26.00;99.90;;;;;;5014392;28;20387;-70
2022/07/21 11:39:34;;;;;;;14.30;8.93;;;26.20;99.90;;;;;;5015975;28;20052;-70
2022/07/21 11:42:05;;;;;;;18.05;9.63;;;26.20;99.90;;;;;;5015881;28;20092;-70
2022/07/21 11:44:32;;;;;;;16.17;9.07;;;26.30;99.90;;;;;;5014932;28;20046;-70
2022/07/21 11:47:00;;;;;;;14.55;9.23;;;26.30;99.90;;;;;;5015106;28;20048;-70
2022/07/21 11:49:26;;;;;;;14.05;9.15;;;26.40;99.90;;;;;;5015091;28;20497;-70
2022/07/21 11:51:55;;;;;;;12.93;9.23;;;26.50;99.90;;;;;;5015807;28;20081;-70
2022/07/21 11:54:23;;;;;;;14.85;8.63;;;26.70;99.90;;;;;;5015424;28;20119;-70
2022/07/21 11:56:54;;;;;;;13.65;9.13;;;26.70;99.90;;;;;;5015321;28;20129;-70
2022/07/21 11:59:20;;;;;;;13.43;9.90;;;26.90;99.90;;;;;;5015244;28;20089;-70
2022/07/21 12:01:57;;;;;;;21.90;11.20;;;26.90;99.90;;;;;;5015017;28;20041;-70
2022/07/21 12:04:27;;;;;;;13.90;8.93;;;26.80;99.90;;;;;;5015209;28;20085;-70
2022/07/21 12:06:53;;;;;;;15.45;8.95;;;26.80;99.90;;;;;;5015742;28;20046;-70
2022/07/21 12:09:19;;;;;;;13.00;9.27;;;26.90;99.90;;;;;;5015291;28;20080;-70
2022/07/21 12:11:45;;;;;;;16.75;10.20;;;27.00;99.90;;;;;;5015141;28;20046;-70
2022/07/21 12:14:10;;;;;;;14.40;8.63;;;27.10;99.90;;;;;;5015089;28;20104;-71
2022/07/21 12:16:50;;;;;;;15.40;8.45;;;27.20;99.90;;;;;;5014948;28;20042;-70
2022/07/21 12:19:17;;;;;;;16.38;10.10;;;26.90;99.90;;;;;;5015511;28;20123;-70
2022/07/21 12:21:53;;;;;;;16.13;8.40;;;27.10;99.90;;;;;;5015025;28;20115;-70
2022/07/21 12:24:21;;;;;;;15.32;8.57;;;27.20;99.90;;;;;;5015306;28;20052;-70
2022/07/21 12:26:47;;;;;;;12.88;7.90;;;27.20;99.90;;;;;;5014977;28;20367;-71
2022/07/21 12:29:26;;;;;;;12.73;7.25;;;27.20;99.90;;;;;;5014593;28;20054;-70
2022/07/21 12:31:52;;;;;;;11.15;7.55;;;27.10;99.90;;;;;;5014894;28;20049;-71
2022/07/21 12:34:18;;;;;;;12.70;8.88;;;26.90;99.90;;;;;;5015070;28;20041;-70
2022/07/21 12:36:45;;;;;;;15.80;8.77;;;27.00;99.90;;;;;;5015037;28;20454;-70